Main page
METAR-TAF:

METAR-TAF

Airports :

Mar del Plata, Argentina

Astor Piazzolla International Airport

latitude: 37-56S, longitude: 057-35W, elevation: 18 m

Current weather observation

The report was made 59 minutes ago, at 16:00 UTC
Wind 12 kt from the East/Northeast
Temperature 23°C
Humidity 78%
Pressure 1017 hPa
Visibility 10 km or more
Scattered clouds at a height of 2300 ft
Broken clouds at a height of 20000 ft

METAR: SAZM 261600Z 07012KT 9999 SCT023 BKN200 23/19 Q1017

Time: 13:59 (16:59 UTC)

Forecast

The report was made 5 hours and 59 minutes ago, at 11:00 UTC
Forecast valid from 26 at 12 UTC to 27 at 12 UTC
Wind 5 kt from the North/Northeast
Visibility: 3000 m
Broken clouds at a height of 1000 ft
mist
Becoming
from 26 at 14 UTC to 26 at 16 UTC
Wind 20 kt from the Northeast
Visibility 10 km or more
Scattered clouds at a height of 2000 ft
Scattered clouds at a height of 3000 ft

TAF: SAZM 261100Z 2612/2712 02005KT 3000 BR BKN010 TX28/2618Z TN18/2610Z BECMG 2614/2616 05020KT 9999 SCT020 SCT030

Weather observations and forecasts of more than 4000 airports (METAR and TAF reports).

The available stations are represented by yellow and red dots on the map.

Hover mouse over dot to see the name of the station.

Then click to see weather observations and forecasts.

To change the map : click on the green buttons with a black cross to zoom in, on the green button with a dash to zoom out, or on the green arrows for adjacent maps.


METAR-TAF: